createdAt,value
2022-10-28T00:01:16.288Z,8.83
2022-10-28T00:03:57.969Z,8.98
2022-10-28T00:06:30.576Z,9.07
2022-10-28T00:08:57.934Z,8.88
2022-10-28T00:11:32.267Z,8.94
2022-10-28T00:14:03.998Z,9.04
2022-10-28T00:16:34.462Z,8.94
2022-10-28T00:19:03.693Z,8.74
2022-10-28T00:21:42.031Z,8.92
2022-10-28T00:24:10.905Z,8.95
2022-10-28T00:26:44.640Z,9.00
2022-10-28T00:29:15.562Z,8.79
2022-10-28T00:31:43.330Z,8.80
2022-10-28T00:34:16.676Z,8.58
2022-10-28T00:36:46.128Z,8.84
2022-10-28T00:39:19.051Z,8.45
2022-10-28T00:41:51.959Z,8.65
2022-10-28T00:44:55.459Z,8.82
2022-10-28T00:47:43.593Z,8.53
2022-10-28T00:50:49.099Z,8.68
2022-10-28T00:53:29.972Z,8.59
2022-10-28T00:55:59.917Z,8.50
2022-10-28T00:58:27.528Z,8.25
2022-10-28T01:00:54.759Z,8.35
2022-10-28T01:03:21.755Z,8.12
2022-10-28T01:05:50.984Z,8.30
2022-10-28T01:08:18.493Z,8.27
2022-10-28T01:11:24.550Z,8.40
2022-10-28T01:14:21.780Z,8.45
2022-10-28T01:17:24.032Z,8.53
2022-10-28T01:20:25.278Z,8.49
2022-10-28T01:23:42.229Z,8.44
2022-10-28T01:26:35.226Z,8.52
2022-10-28T01:29:20.411Z,8.41
2022-10-28T01:32:22.017Z,8.38
2022-10-28T01:35:11.648Z,8.26
2022-10-28T01:38:20.442Z,8.49
2022-10-28T01:40:57.534Z,8.46
2022-10-28T01:43:47.617Z,8.35
2022-10-28T01:46:26.285Z,8.09
2022-10-28T01:48:59.298Z,8.10
2022-10-28T01:51:56.143Z,8.15
2022-10-28T01:54:26.759Z,7.76
2022-10-28T01:56:56.865Z,8.05
2022-10-28T01:59:28.355Z,8.16
2022-10-28T02:01:57.781Z,8.09
2022-10-28T02:04:24.680Z,7.99
2022-10-28T02:06:57.340Z,7.84
2022-10-28T02:10:04.268Z,7.93
2022-10-28T02:12:37.551Z,7.96
2022-10-28T02:15:28.656Z,7.98
2022-10-28T02:18:35.738Z,7.69
2022-10-28T02:21:18.579Z,7.99
2022-10-28T02:23:59.176Z,7.67
2022-10-28T02:26:42.213Z,7.75
2022-10-28T02:29:17.824Z,8.01
2022-10-28T02:31:52.946Z,7.86
2022-10-28T02:34:26.700Z,7.69
2022-10-28T02:36:55.754Z,7.87
2022-10-28T02:39:37.363Z,7.67
2022-10-28T02:42:29.106Z,7.56
2022-10-28T02:45:13.183Z,7.41
2022-10-28T02:47:48.739Z,7.35
2022-10-28T02:50:20.333Z,7.35
2022-10-28T02:52:51.767Z,7.46
2022-10-28T02:55:20.946Z,7.34
2022-10-28T02:57:49.405Z,7.41
2022-10-28T03:00:23.259Z,7.48
2022-10-28T03:02:50.073Z,7.29
2022-10-28T03:05:17.476Z,7.40
2022-10-28T03:07:44.298Z,7.55
2022-10-28T03:10:11.172Z,7.29
2022-10-28T03:12:39.968Z,7.30
2022-10-28T03:15:07.607Z,7.37
2022-10-28T03:17:34.602Z,7.16
2022-10-28T03:20:01.479Z,7.14
2022-10-28T03:22:28.297Z,7.17
2022-10-28T03:24:55.097Z,7.29
2022-10-28T03:27:31.844Z,7.52
2022-10-28T03:29:58.577Z,7.46
2022-10-28T03:32:32.507Z,7.20
2022-10-28T03:34:59.252Z,7.35
2022-10-28T03:37:26.052Z,7.32
2022-10-28T03:39:52.892Z,7.03
2022-10-28T03:42:19.831Z,7.28
2022-10-28T03:44:47.686Z,7.43
2022-10-28T03:47:14.457Z,7.50
2022-10-28T03:49:41.286Z,7.35
2022-10-28T03:52:08.051Z,7.32
2022-10-28T03:54:34.795Z,7.01
2022-10-28T03:57:01.661Z,7.37
2022-10-28T03:59:28.437Z,7.14
2022-10-28T04:01:55.439Z,7.09
2022-10-28T04:04:23.529Z,7.36
2022-10-28T04:06:51.853Z,7.31
2022-10-28T04:09:18.626Z,7.27
2022-10-28T04:11:49.485Z,7.46
2022-10-28T04:14:16.251Z,7.23
2022-10-28T04:16:43.023Z,7.17
2022-10-28T04:19:15.627Z,7.32
2022-10-28T04:21:42.379Z,7.48
2022-10-28T04:24:09.478Z,7.46
2022-10-28T04:26:36.250Z,7.46
2022-10-28T04:29:03.114Z,7.51
2022-10-28T04:31:29.835Z,7.59
2022-10-28T04:33:56.645Z,7.55
2022-10-28T04:36:23.443Z,7.48
2022-10-28T04:38:52.101Z,7.32
2022-10-28T04:41:22.030Z,7.63
2022-10-28T04:43:48.878Z,7.55
2022-10-28T04:46:21.570Z,7.65
2022-10-28T04:48:48.625Z,7.40
2022-10-28T04:51:15.537Z,7.45
2022-10-28T04:53:42.303Z,7.43
2022-10-28T04:56:10.043Z,7.49
2022-10-28T04:58:36.785Z,7.54
2022-10-28T05:01:10.750Z,7.64
2022-10-28T05:03:37.589Z,7.58
2022-10-28T05:06:04.584Z,7.40
2022-10-28T05:08:31.432Z,7.50
2022-10-28T05:10:58.320Z,7.53
2022-10-28T05:13:25.164Z,7.53
2022-10-28T05:15:52.008Z,7.34
2022-10-28T05:18:20.850Z,7.53
2022-10-28T05:20:52.850Z,7.22
2022-10-28T05:23:25.889Z,7.40
2022-10-28T05:25:56.754Z,7.53
2022-10-28T05:28:23.480Z,7.44
2022-10-28T05:30:50.315Z,7.47
2022-10-28T05:33:17.209Z,7.24
2022-10-28T05:35:44.084Z,7.32
2022-10-28T05:38:11.038Z,7.54
2022-10-28T05:40:38.970Z,7.57
2022-10-28T05:43:05.989Z,7.45
2022-10-28T05:45:34.885Z,7.64
2022-10-28T05:48:01.710Z,7.38
2022-10-28T05:50:28.918Z,7.29
2022-10-28T05:52:57.808Z,7.23
2022-10-28T05:55:28.476Z,7.74
2022-10-28T05:57:56.614Z,7.62
2022-10-28T06:00:26.317Z,7.73
2022-10-28T06:02:53.546Z,7.57
2022-10-28T06:05:20.817Z,7.66
2022-10-28T06:07:47.637Z,7.85
2022-10-28T06:10:15.758Z,7.71
2022-10-28T06:12:41.038Z,7.59
2022-10-28T06:15:10.033Z,7.70
2022-10-28T06:17:36.893Z,7.56
2022-10-28T06:20:04.908Z,7.62
2022-10-28T06:22:31.691Z,7.61
2022-10-28T06:24:58.570Z,7.86
2022-10-28T06:27:25.399Z,7.91
2022-10-28T06:30:05.460Z,8.03
2022-10-28T06:32:32.498Z,7.91
2022-10-28T06:35:01.331Z,8.12
2022-10-28T06:37:28.116Z,8.14
2022-10-28T06:39:57.410Z,7.76
2022-10-28T06:42:24.246Z,7.91
2022-10-28T06:45:00.818Z,7.72
2022-10-28T06:47:29.206Z,8.12
2022-10-28T06:49:55.996Z,8.21
2022-10-28T06:52:22.825Z,7.98
2022-10-28T06:54:49.600Z,8.26
2022-10-28T06:57:16.385Z,7.97
2022-10-28T06:59:43.226Z,8.39
2022-10-28T07:02:16.297Z,8.52
2022-10-28T07:04:43.201Z,8.40
2022-10-28T07:07:10.003Z,8.62
2022-10-28T07:09:39.707Z,8.36
2022-10-28T07:12:08.179Z,8.56
2022-10-28T07:14:35.084Z,8.58
2022-10-28T07:17:02.477Z,8.65
2022-10-28T07:19:29.378Z,8.73
2022-10-28T07:21:56.153Z,8.77
2022-10-28T07:24:23.022Z,8.82
2022-10-28T07:26:52.051Z,8.66
2022-10-28T07:29:21.254Z,8.60
2022-10-28T07:31:48.037Z,8.74
2022-10-28T07:34:14.931Z,8.82
2022-10-28T07:36:41.717Z,8.90
2022-10-28T07:39:10.509Z,8.90
2022-10-28T07:41:37.811Z,8.99
2022-10-28T07:44:04.785Z,9.07
2022-10-28T07:46:31.613Z,9.06
2022-10-28T07:48:58.453Z,9.01
2022-10-28T07:51:37.120Z,9.19
2022-10-28T07:54:04.154Z,9.28
2022-10-28T07:56:37.199Z,9.32
2022-10-28T07:59:04.082Z,9.39
2022-10-28T08:01:33.103Z,9.54
2022-10-28T08:04:00.024Z,9.51
2022-10-28T08:06:27.890Z,9.35
2022-10-28T08:08:56.612Z,9.26
2022-10-28T08:11:30.373Z,9.62
2022-10-28T08:13:57.592Z,9.82
2022-10-28T08:16:24.622Z,9.95
2022-10-28T08:18:53.280Z,9.98
2022-10-28T08:21:20.318Z,9.69
2022-10-28T08:23:47.184Z,10.19
2022-10-28T08:26:16.006Z,10.05
2022-10-28T08:28:43.630Z,10.06
2022-10-28T08:31:12.589Z,10.15
2022-10-28T08:33:45.294Z,10.11
2022-10-28T08:36:16.916Z,10.23
2022-10-28T08:38:46.109Z,10.56
2022-10-28T08:41:32.881Z,10.67
2022-10-28T08:44:21.295Z,10.63
2022-10-28T08:47:19.514Z,10.48
2022-10-28T08:49:52.631Z,10.77
2022-10-28T08:52:41.512Z,10.78
2022-10-28T08:55:27.246Z,11.14
2022-10-28T08:58:19.016Z,11.00
2022-10-28T09:00:54.056Z,11.13
2022-10-28T09:03:33.272Z,11.47
2022-10-28T09:06:10.627Z,11.49
2022-10-28T09:08:43.760Z,11.56
2022-10-28T09:11:10.472Z,11.85
2022-10-28T09:14:08.138Z,11.99
2022-10-28T09:17:10.756Z,11.99
2022-10-28T09:19:54.279Z,11.97
2022-10-28T09:22:38.869Z,12.30
2022-10-28T09:25:22.534Z,12.32
2022-10-28T09:28:11.393Z,12.56
2022-10-28T09:31:04.793Z,12.70
2022-10-28T09:33:48.272Z,12.76
2022-10-28T09:36:23.844Z,12.91
2022-10-28T09:38:55.532Z,12.91
2022-10-28T09:41:28.983Z,12.78
2022-10-28T09:44:16.410Z,13.19
2022-10-28T09:46:48.009Z,13.19
2022-10-28T09:49:31.836Z,13.40
2022-10-28T09:52:24.120Z,13.55
2022-10-28T09:54:53.166Z,13.69
2022-10-28T09:57:21.028Z,13.69
2022-10-28T09:59:48.171Z,13.98
2022-10-28T10:02:35.904Z,14.19
2022-10-28T10:05:03.508Z,14.48
2022-10-28T10:08:05.338Z,14.65
2022-10-28T10:10:48.981Z,15.08
2022-10-28T10:13:22.038Z,15.16
2022-10-28T10:15:53.133Z,15.43
2022-10-28T10:18:33.146Z,15.57
2022-10-28T10:21:00.765Z,15.99
2022-10-28T10:26:14.142Z,16.56
2022-10-28T10:28:49.652Z,16.66
2022-10-28T10:31:23.685Z,16.68
2022-10-28T10:33:53.889Z,16.64
2022-10-28T10:36:28.415Z,17.02
2022-10-28T10:38:59.012Z,17.23
2022-10-28T10:41:43.871Z,17.38
2022-10-28T10:44:32.388Z,17.63
2022-10-28T10:47:06.005Z,17.98
2022-10-28T10:49:35.770Z,17.75
2022-10-28T10:52:09.733Z,18.12
2022-10-28T10:54:38.320Z,18.42
2022-10-28T10:57:19.478Z,18.59
2022-10-28T10:59:51.929Z,18.91
2022-10-28T11:02:35.154Z,19.07
2022-10-28T11:05:10.071Z,19.45
2022-10-28T11:07:40.623Z,19.79
2022-10-28T11:10:33.583Z,20.18
2022-10-28T11:13:06.249Z,20.22
2022-10-28T11:15:33.482Z,20.43
2022-10-28T11:18:09.285Z,20.80
2022-10-28T11:20:47.554Z,20.95
2022-10-28T11:23:51.636Z,21.09
2022-10-28T11:26:21.844Z,21.16
2022-10-28T11:29:03.726Z,21.46
2022-10-28T11:31:44.938Z,21.39
2022-10-28T11:34:58.206Z,21.68
2022-10-28T11:37:49.314Z,21.73
2022-10-28T11:41:08.419Z,21.42
2022-10-28T11:43:57.744Z,21.75
2022-10-28T11:46:37.847Z,21.95
2022-10-28T11:49:50.790Z,22.03
2022-10-28T11:52:32.346Z,22.07
2022-10-28T11:55:36.089Z,22.09
2022-10-28T11:58:32.190Z,22.20
2022-10-28T12:01:32.359Z,22.14
2022-10-28T12:04:17.564Z,21.90
2022-10-28T12:07:22.539Z,22.00
2022-10-28T12:10:19.314Z,22.43
2022-10-28T12:13:07.208Z,22.61
2022-10-28T12:16:17.642Z,22.61
2022-10-28T12:19:16.989Z,22.87
2022-10-28T12:21:57.622Z,23.07
2022-10-28T12:24:25.752Z,23.09
2022-10-28T12:26:57.667Z,23.42
2022-10-28T12:29:28.740Z,23.53
2022-10-28T12:32:02.724Z,23.62
2022-10-28T12:34:46.996Z,23.81
2022-10-28T12:37:22.624Z,23.79
2022-10-28T12:40:26.765Z,24.01
2022-10-28T12:43:13.106Z,23.78
2022-10-28T12:45:41.813Z,23.86
2022-10-28T12:48:41.609Z,23.79
2022-10-28T12:51:33.544Z,23.92
2022-10-28T12:54:18.887Z,23.91
2022-10-28T12:56:55.293Z,23.63
2022-10-28T12:59:28.367Z,23.47
2022-10-28T13:01:55.947Z,23.29
2022-10-28T13:04:23.014Z,23.20
2022-10-28T13:07:01.798Z,23.36
2022-10-28T13:10:09.993Z,23.03
2022-10-28T13:13:05.239Z,23.24
2022-10-28T13:16:15.394Z,23.45
2022-10-28T13:18:58.375Z,23.71
2022-10-28T13:21:39.629Z,23.75
2022-10-28T13:24:26.532Z,23.94
2022-10-28T13:26:54.195Z,23.82
2022-10-28T13:29:27.893Z,23.71
2022-10-28T13:31:55.749Z,23.92
2022-10-28T13:34:37.925Z,24.10
2022-10-28T13:37:07.671Z,24.27
2022-10-28T13:39:36.920Z,24.34
2022-10-28T13:42:47.123Z,24.22
2022-10-28T13:45:54.577Z,24.16
2022-10-28T13:48:33.242Z,24.31
2022-10-28T13:51:11.833Z,24.56
2022-10-28T13:53:56.938Z,24.29
2022-10-28T13:56:48.000Z,24.38
2022-10-28T13:59:14.840Z,24.58
2022-10-28T14:01:41.774Z,24.51
2022-10-28T14:04:25.139Z,24.48
2022-10-28T14:07:04.973Z,24.42
2022-10-28T14:09:34.759Z,24.66
2022-10-28T14:12:30.272Z,24.35
2022-10-28T14:15:17.016Z,24.48
2022-10-28T14:18:10.366Z,24.29
2022-10-28T14:20:49.042Z,24.60
2022-10-28T14:23:44.947Z,24.68
2022-10-28T14:26:11.821Z,24.49
2022-10-28T14:28:38.566Z,24.76
2022-10-28T14:31:08.326Z,24.63
2022-10-28T14:33:37.437Z,24.42
2022-10-28T14:36:20.254Z,24.53
2022-10-28T14:39:34.807Z,24.32
2022-10-28T14:42:47.996Z,24.13
2022-10-28T14:46:07.735Z,24.36
2022-10-28T14:48:47.711Z,24.28
2022-10-28T14:51:23.696Z,24.09
2022-10-28T14:53:56.658Z,24.24
2022-10-28T14:56:34.185Z,24.11
2022-10-28T14:59:33.480Z,23.61
2022-10-28T15:02:22.952Z,23.51
2022-10-28T15:05:03.288Z,23.48
2022-10-28T15:07:37.937Z,23.16
2022-10-28T15:10:27.552Z,22.98
2022-10-28T15:12:56.848Z,23.02
2022-10-28T15:15:33.681Z,22.95
2022-10-28T15:18:01.224Z,22.67
2022-10-28T15:20:37.006Z,22.54
2022-10-28T15:23:18.417Z,22.27
2022-10-28T15:25:45.836Z,22.36
2022-10-28T15:28:14.073Z,22.37
2022-10-28T15:30:53.036Z,21.83
2022-10-28T15:33:30.104Z,21.91
2022-10-28T15:36:26.699Z,21.53
2022-10-28T15:39:08.639Z,21.61
2022-10-28T15:41:56.500Z,21.19
2022-10-28T15:44:39.487Z,21.14
2022-10-28T15:47:33.556Z,20.79
2022-10-28T15:50:06.121Z,20.74
2022-10-28T15:52:55.872Z,20.27
2022-10-28T15:55:41.121Z,20.06
2022-10-28T15:58:34.195Z,20.32
2022-10-28T16:01:01.116Z,20.25
2022-10-28T16:03:49.580Z,20.20
2022-10-28T16:06:31.852Z,19.88
2022-10-28T16:09:16.527Z,19.97
2022-10-28T16:11:48.809Z,19.47
2022-10-28T16:14:41.407Z,19.47
2022-10-28T16:17:17.623Z,19.31
2022-10-28T16:19:55.331Z,19.24
2022-10-28T16:22:25.439Z,19.05
2022-10-28T16:24:54.117Z,19.09
2022-10-28T16:27:40.876Z,19.01
2022-10-28T16:30:08.575Z,18.76
2022-10-28T16:32:56.844Z,18.73
2022-10-28T16:35:24.529Z,18.64
2022-10-28T16:37:55.355Z,18.39
2022-10-28T16:40:50.992Z,18.36
2022-10-28T16:43:36.191Z,18.23
2022-10-28T16:46:02.869Z,18.09
2022-10-28T16:52:29.516Z,17.65
2022-10-28T16:55:14.410Z,17.91
2022-10-28T16:57:41.230Z,17.60
2022-10-28T17:00:12.701Z,17.66
2022-10-28T17:02:39.681Z,17.32
2022-10-28T17:05:11.123Z,17.28
2022-10-28T17:07:38.006Z,17.14
2022-10-28T17:10:05.214Z,16.93
2022-10-28T17:12:32.119Z,17.04
2022-10-28T17:14:58.891Z,16.74
2022-10-28T17:17:25.766Z,16.56
2022-10-28T17:19:52.659Z,16.73
2022-10-28T17:22:19.486Z,16.56
2022-10-28T17:24:46.440Z,16.60
2022-10-28T17:27:13.485Z,16.39
2022-10-28T17:29:40.535Z,16.40
2022-10-28T17:32:08.806Z,16.35
2022-10-28T17:34:41.590Z,16.04
2022-10-28T17:37:10.495Z,16.41
2022-10-28T17:39:38.070Z,16.16
2022-10-28T17:42:04.905Z,15.96
2022-10-28T17:44:37.578Z,15.80
2022-10-28T17:47:04.647Z,15.52
2022-10-28T17:49:34.433Z,15.71
2022-10-28T17:52:01.275Z,15.66
2022-10-28T17:54:36.819Z,15.58
2022-10-28T17:57:03.694Z,15.32
2022-10-28T17:59:41.469Z,15.49
2022-10-28T18:02:13.125Z,15.11
2022-10-28T18:04:40.543Z,15.50
2022-10-28T18:07:07.424Z,15.45
2022-10-28T18:10:00.894Z,15.22
2022-10-28T18:12:27.614Z,15.16
2022-10-28T18:14:54.426Z,14.96
2022-10-28T18:17:21.476Z,15.07
2022-10-28T18:19:48.339Z,14.75
2022-10-28T18:22:15.184Z,14.93
2022-10-28T18:24:50.332Z,14.53
2022-10-28T18:27:17.119Z,14.57
2022-10-28T18:29:56.098Z,14.40
2022-10-28T18:32:24.030Z,14.37
2022-10-28T18:34:51.997Z,14.62
2022-10-28T18:37:18.847Z,14.63
2022-10-28T18:39:45.739Z,14.34
2022-10-28T18:42:13.513Z,14.12
2022-10-28T18:44:46.855Z,14.32
2022-10-28T18:47:13.605Z,14.41
2022-10-28T18:49:40.410Z,14.07
2022-10-28T18:52:07.231Z,14.01
2022-10-28T18:54:34.619Z,14.11
2022-10-28T18:57:01.391Z,14.05
2022-10-28T18:59:28.537Z,13.67
2022-10-28T19:01:55.423Z,13.58
2022-10-28T19:04:22.560Z,13.76
2022-10-28T19:06:49.432Z,13.59
2022-10-28T19:09:16.260Z,13.39
2022-10-28T19:11:43.142Z,13.29
2022-10-28T19:14:10.061Z,13.43
2022-10-28T19:16:37.020Z,13.25
2022-10-28T19:19:05.798Z,13.31
2022-10-28T19:21:39.517Z,13.29
2022-10-28T19:24:06.756Z,13.19
2022-10-28T19:26:39.427Z,13.17
2022-10-28T19:29:06.377Z,13.03
2022-10-28T19:31:40.058Z,12.76
2022-10-28T19:34:06.952Z,12.91
2022-10-28T19:36:34.773Z,12.84
2022-10-28T19:39:03.465Z,13.10
2022-10-28T19:41:30.875Z,13.05
2022-10-28T19:44:02.781Z,12.99
2022-10-28T19:46:33.731Z,12.75
2022-10-28T19:49:04.688Z,12.87
2022-10-28T19:51:38.574Z,12.68
2022-10-28T19:54:10.560Z,12.68
2022-10-28T19:56:39.430Z,12.54
2022-10-28T19:59:08.462Z,12.77
2022-10-28T20:01:37.971Z,12.52
2022-10-28T20:04:08.612Z,12.57
2022-10-28T20:06:38.409Z,12.58
2022-10-28T20:09:08.265Z,12.33
2022-10-28T20:11:38.254Z,12.26
2022-10-28T20:14:10.108Z,12.21
2022-10-28T20:16:37.413Z,12.28
2022-10-28T20:19:04.650Z,12.17
2022-10-28T20:21:34.361Z,12.05
2022-10-28T20:24:01.887Z,12.08
2022-10-28T20:26:33.821Z,12.10
2022-10-28T20:29:03.814Z,11.96
2022-10-28T20:31:32.487Z,12.01
2022-10-28T20:34:03.969Z,12.07
2022-10-28T20:36:37.115Z,12.15
2022-10-28T20:39:12.697Z,12.04
2022-10-28T20:41:42.753Z,11.88
2022-10-28T20:44:09.586Z,11.69
2022-10-28T20:46:48.025Z,11.78
2022-10-28T20:49:15.778Z,11.58
2022-10-28T20:51:42.931Z,11.67
2022-10-28T20:54:09.953Z,11.85
2022-10-28T20:56:38.844Z,11.81
2022-10-28T20:59:06.010Z,11.69
2022-10-28T21:01:41.104Z,11.44
2022-10-28T21:04:10.797Z,11.65
2022-10-28T21:06:39.483Z,11.35
2022-10-28T21:09:07.963Z,11.50
2022-10-28T21:11:35.426Z,11.61
2022-10-28T21:14:02.654Z,11.05
2022-10-28T21:16:37.486Z,11.44
2022-10-28T21:19:04.356Z,11.11
2022-10-28T21:21:37.764Z,11.02
2022-10-28T21:24:05.262Z,10.98
2022-10-28T21:26:32.131Z,11.15
2022-10-28T21:28:58.911Z,11.02
2022-10-28T21:31:25.876Z,11.17
2022-10-28T21:33:53.600Z,10.86
2022-10-28T21:36:22.501Z,10.89
2022-10-28T21:38:54.717Z,11.00
2022-10-28T21:41:23.128Z,10.89
2022-10-28T21:43:52.278Z,10.99
2022-10-28T21:46:21.738Z,10.75
2022-10-28T21:48:48.510Z,10.89
2022-10-28T21:51:21.052Z,10.77
2022-10-28T21:53:47.903Z,10.92
2022-10-28T21:56:19.095Z,10.85
2022-10-28T21:58:48.900Z,10.69
2022-10-28T22:01:24.230Z,10.94
2022-10-28T22:03:53.604Z,10.82
2022-10-28T22:06:20.468Z,10.82
2022-10-28T22:08:48.480Z,10.80
2022-10-28T22:11:19.095Z,10.73
2022-10-28T22:13:46.575Z,10.65
2022-10-28T22:16:16.407Z,10.66
2022-10-28T22:18:44.229Z,10.60
2022-10-28T22:21:13.322Z,10.77
2022-10-28T22:23:40.540Z,10.64
2022-10-28T22:26:11.529Z,10.64
2022-10-28T22:28:38.863Z,10.37
2022-10-28T22:31:08.632Z,10.31
2022-10-28T22:33:36.041Z,10.44
2022-10-28T22:36:06.553Z,10.45
2022-10-28T22:38:33.482Z,10.42
2022-10-28T22:41:06.783Z,10.40
2022-10-28T22:43:33.866Z,10.48
2022-10-28T22:46:01.887Z,10.51
2022-10-28T22:48:29.075Z,10.30
2022-10-28T22:50:56.148Z,10.35
2022-10-28T22:53:23.445Z,10.44
2022-10-28T22:55:52.578Z,10.35
2022-10-28T22:58:20.152Z,10.23
2022-10-28T23:00:47.325Z,10.26
2022-10-28T23:03:14.472Z,10.28
2022-10-28T23:05:41.538Z,10.30
2022-10-28T23:08:12.044Z,10.32
2022-10-28T23:10:38.774Z,10.21
2022-10-28T23:13:05.518Z,10.13
2022-10-28T23:15:32.403Z,10.21
2022-10-28T23:17:59.318Z,10.11
2022-10-28T23:20:26.210Z,10.18
2022-10-28T23:22:56.359Z,10.21
2022-10-28T23:25:23.330Z,10.18
2022-10-28T23:27:50.049Z,10.08
2022-10-28T23:30:16.993Z,10.07
2022-10-28T23:32:43.740Z,10.08
2022-10-28T23:35:10.553Z,10.01
2022-10-28T23:37:37.704Z,9.96
2022-10-28T23:40:05.539Z,10.02
2022-10-28T23:42:32.360Z,10.02
2022-10-28T23:44:59.081Z,9.91
2022-10-28T23:47:25.765Z,9.88
2022-10-28T23:49:53.026Z,9.87
2022-10-28T23:52:19.792Z,9.95
2022-10-28T23:54:46.497Z,9.85
2022-10-28T23:57:13.285Z,9.82
2022-10-28T23:59:39.980Z,9.80
